sensor_id;sensor_type;location;lat;lon;timestamp;P1;durP1;ratioP1;P2;durP2;ratioP2
15669;SDS011;18524;45.190;5.732;2022-07-23T00:03:53;11.43;;;10.53;;
15669;SDS011;18524;45.190;5.732;2022-07-23T00:08:45;11.30;;;10.30;;
15669;SDS011;18524;45.190;5.732;2022-07-23T00:13:35;11.53;;;10.33;;
15669;SDS011;18524;45.190;5.732;2022-07-23T00:18:25;10.90;;;10.00;;
15669;SDS011;18524;45.190;5.732;2022-07-23T00:23:16;12.20;;;11.10;;
15669;SDS011;18524;45.190;5.732;2022-07-23T00:28:06;11.07;;;10.23;;
15669;SDS011;18524;45.190;5.732;2022-07-23T00:32:58;11.33;;;9.97;;
15669;SDS011;18524;45.190;5.732;2022-07-23T00:37:50;11.73;;;10.60;;
15669;SDS011;18524;45.190;5.732;2022-07-23T00:42:40;10.17;;;9.17;;
15669;SDS011;18524;45.190;5.732;2022-07-23T00:47:31;10.63;;;9.70;;
15669;SDS011;18524;45.190;5.732;2022-07-23T00:52:22;9.83;;;8.87;;
15669;SDS011;18524;45.190;5.732;2022-07-23T00:57:12;9.60;;;8.80;;
15669;SDS011;18524;45.190;5.732;2022-07-23T01:02:03;9.73;;;8.83;;
15669;SDS011;18524;45.190;5.732;2022-07-23T01:06:53;10.20;;;8.60;;
15669;SDS011;18524;45.190;5.732;2022-07-23T01:11:43;11.00;;;8.60;;
15669;SDS011;18524;45.190;5.732;2022-07-23T01:16:34;9.80;;;8.80;;
15669;SDS011;18524;45.190;5.732;2022-07-23T01:21:24;9.77;;;8.70;;
15669;SDS011;18524;45.190;5.732;2022-07-23T01:26:15;9.13;;;8.30;;
15669;SDS011;18524;45.190;5.732;2022-07-23T01:31:07;9.47;;;8.40;;
15669;SDS011;18524;45.190;5.732;2022-07-23T01:35:57;11.43;;;10.27;;
15669;SDS011;18524;45.190;5.732;2022-07-23T01:40:47;11.93;;;10.80;;
15669;SDS011;18524;45.190;5.732;2022-07-23T01:45:38;12.07;;;10.97;;
15669;SDS011;18524;45.190;5.732;2022-07-23T01:50:28;12.00;;;11.00;;
15669;SDS011;18524;45.190;5.732;2022-07-23T01:55:18;12.20;;;11.17;;
15669;SDS011;18524;45.190;5.732;2022-07-23T02:00:09;12.50;;;11.30;;
15669;SDS011;18524;45.190;5.732;2022-07-23T02:05:00;11.53;;;10.40;;
15669;SDS011;18524;45.190;5.732;2022-07-23T02:09:50;12.03;;;10.93;;
15669;SDS011;18524;45.190;5.732;2022-07-23T02:14:41;12.30;;;11.30;;
15669;SDS011;18524;45.190;5.732;2022-07-23T02:19:31;12.03;;;10.87;;
15669;SDS011;18524;45.190;5.732;2022-07-23T02:24:21;11.90;;;10.67;;
15669;SDS011;18524;45.190;5.732;2022-07-23T02:29:12;10.43;;;9.43;;
15669;SDS011;18524;45.190;5.732;2022-07-23T02:34:03;9.57;;;8.67;;
15669;SDS011;18524;45.190;5.732;2022-07-23T02:38:53;9.53;;;8.73;;
15669;SDS011;18524;45.190;5.732;2022-07-23T02:43:44;10.43;;;8.43;;
15669;SDS011;18524;45.190;5.732;2022-07-23T02:48:34;9.20;;;8.40;;
15669;SDS011;18524;45.190;5.732;2022-07-23T02:53:25;10.13;;;9.23;;
15669;SDS011;18524;45.190;5.732;2022-07-23T02:58:15;9.33;;;8.43;;
15669;SDS011;18524;45.190;5.732;2022-07-23T03:03:06;9.37;;;8.57;;
15669;SDS011;18524;45.190;5.732;2022-07-23T03:07:57;9.53;;;8.63;;
15669;SDS011;18524;45.190;5.732;2022-07-23T03:12:47;9.80;;;8.97;;
15669;SDS011;18524;45.190;5.732;2022-07-23T03:17:38;9.97;;;8.90;;
15669;SDS011;18524;45.190;5.732;2022-07-23T03:22:28;9.67;;;8.87;;
15669;SDS011;18524;45.190;5.732;2022-07-23T03:27:19;10.97;;;9.10;;
15669;SDS011;18524;45.190;5.732;2022-07-23T03:32:13;9.90;;;8.93;;
15669;SDS011;18524;45.190;5.732;2022-07-23T03:37:04;10.70;;;9.70;;
15669;SDS011;18524;45.190;5.732;2022-07-23T03:41:54;9.97;;;8.97;;
15669;SDS011;18524;45.190;5.732;2022-07-23T03:46:45;10.00;;;9.10;;
15669;SDS011;18524;45.190;5.732;2022-07-23T03:51:35;9.87;;;9.03;;
15669;SDS011;18524;45.190;5.732;2022-07-23T03:56:25;10.10;;;9.20;;
15669;SDS011;18524;45.190;5.732;2022-07-23T04:01:16;10.17;;;9.30;;
15669;SDS011;18524;45.190;5.732;2022-07-23T04:06:06;10.30;;;9.40;;
15669;SDS011;18524;45.190;5.732;2022-07-23T04:10:57;10.17;;;9.37;;
15669;SDS011;18524;45.190;5.732;2022-07-23T04:15:47;10.63;;;9.60;;
15669;SDS011;18524;45.190;5.732;2022-07-23T04:20:38;11.53;;;10.03;;
15669;SDS011;18524;45.190;5.732;2022-07-23T04:25:28;10.63;;;9.57;;
15669;SDS011;18524;45.190;5.732;2022-07-23T04:30:18;11.60;;;10.13;;
15669;SDS011;18524;45.190;5.732;2022-07-23T04:35:09;10.40;;;9.50;;
15669;SDS011;18524;45.190;5.732;2022-07-23T04:39:59;10.80;;;9.70;;
15669;SDS011;18524;45.190;5.732;2022-07-23T04:44:50;10.93;;;9.87;;
15669;SDS011;18524;45.190;5.732;2022-07-23T04:49:40;11.00;;;10.10;;
15669;SDS011;18524;45.190;5.732;2022-07-23T04:54:31;11.03;;;10.17;;
15669;SDS011;18524;45.190;5.732;2022-07-23T04:59:21;11.40;;;10.40;;
15669;SDS011;18524;45.190;5.732;2022-07-23T05:04:12;11.03;;;10.03;;
15669;SDS011;18524;45.190;5.732;2022-07-23T05:09:02;11.33;;;10.33;;
15669;SDS011;18524;45.190;5.732;2022-07-23T05:13:53;13.97;;;11.70;;
15669;SDS011;18524;45.190;5.732;2022-07-23T05:18:43;12.87;;;11.13;;
15669;SDS011;18524;45.190;5.732;2022-07-23T05:23:33;12.37;;;10.83;;
15669;SDS011;18524;45.190;5.732;2022-07-23T05:28:24;15.63;;;12.73;;
15669;SDS011;18524;45.190;5.732;2022-07-23T05:33:14;14.93;;;12.43;;
15669;SDS011;18524;45.190;5.732;2022-07-23T05:38:05;12.73;;;11.40;;
15669;SDS011;18524;45.190;5.732;2022-07-23T05:42:55;13.20;;;11.90;;
15669;SDS011;18524;45.190;5.732;2022-07-23T05:47:47;13.70;;;12.50;;
15669;SDS011;18524;45.190;5.732;2022-07-23T05:52:39;14.33;;;12.90;;
15669;SDS011;18524;45.190;5.732;2022-07-23T05:57:31;14.57;;;11.93;;
15669;SDS011;18524;45.190;5.732;2022-07-23T06:02:22;13.57;;;12.37;;
15669;SDS011;18524;45.190;5.732;2022-07-23T06:07:12;13.33;;;12.00;;
15669;SDS011;18524;45.190;5.732;2022-07-23T06:12:02;13.90;;;12.50;;
15669;SDS011;18524;45.190;5.732;2022-07-23T06:16:53;12.73;;;11.63;;
15669;SDS011;18524;45.190;5.732;2022-07-23T06:21:43;14.13;;;12.80;;
15669;SDS011;18524;45.190;5.732;2022-07-23T06:26:34;14.20;;;12.80;;
15669;SDS011;18524;45.190;5.732;2022-07-23T06:31:24;13.60;;;12.27;;
15669;SDS011;18524;45.190;5.732;2022-07-23T06:36:15;13.70;;;12.30;;
15669;SDS011;18524;45.190;5.732;2022-07-23T06:41:05;13.77;;;12.57;;
15669;SDS011;18524;45.190;5.732;2022-07-23T06:45:55;13.57;;;12.37;;
15669;SDS011;18524;45.190;5.732;2022-07-23T06:50:46;14.20;;;12.90;;
15669;SDS011;18524;45.190;5.732;2022-07-23T06:55:36;13.63;;;12.33;;
15669;SDS011;18524;45.190;5.732;2022-07-23T07:00:28;13.37;;;12.20;;
15669;SDS011;18524;45.190;5.732;2022-07-23T07:05:20;12.30;;;11.20;;
15669;SDS011;18524;45.190;5.732;2022-07-23T07:10:11;12.27;;;11.27;;
15669;SDS011;18524;45.190;5.732;2022-07-23T07:15:01;12.23;;;11.23;;
15669;SDS011;18524;45.190;5.732;2022-07-23T07:19:51;12.13;;;11.17;;
15669;SDS011;18524;45.190;5.732;2022-07-23T07:24:42;11.30;;;10.40;;
15669;SDS011;18524;45.190;5.732;2022-07-23T07:29:32;12.60;;;11.47;;
15669;SDS011;18524;45.190;5.732;2022-07-23T07:34:22;12.03;;;11.13;;
15669;SDS011;18524;45.190;5.732;2022-07-23T07:39:13;12.57;;;11.57;;
15669;SDS011;18524;45.190;5.732;2022-07-23T07:44:04;13.60;;;12.43;;
15669;SDS011;18524;45.190;5.732;2022-07-23T07:48:54;14.20;;;12.33;;
15669;SDS011;18524;45.190;5.732;2022-07-23T07:53:45;12.27;;;11.17;;
15669;SDS011;18524;45.190;5.732;2022-07-23T07:58:35;13.03;;;11.93;;
15669;SDS011;18524;45.190;5.732;2022-07-23T08:03:26;13.30;;;12.40;;
15669;SDS011;18524;45.190;5.732;2022-07-23T08:08:16;14.00;;;12.87;;
15669;SDS011;18524;45.190;5.732;2022-07-23T08:13:07;13.67;;;12.67;;
15669;SDS011;18524;45.190;5.732;2022-07-23T08:17:57;12.87;;;11.77;;
15669;SDS011;18524;45.190;5.732;2022-07-23T08:27:47;13.10;;;12.00;;
15669;SDS011;18524;45.190;5.732;2022-07-23T08:32:48;13.60;;;12.50;;
15669;SDS011;18524;45.190;5.732;2022-07-23T08:37:58;13.43;;;12.23;;
15669;SDS011;18524;45.190;5.732;2022-07-23T08:42:50;13.90;;;12.80;;
15669;SDS011;18524;45.190;5.732;2022-07-23T08:47:40;13.23;;;12.10;;
15669;SDS011;18524;45.190;5.732;2022-07-23T08:52:31;13.20;;;12.20;;
15669;SDS011;18524;45.190;5.732;2022-07-23T08:57:22;13.67;;;12.57;;
15669;SDS011;18524;45.190;5.732;2022-07-23T09:02:13;13.37;;;12.20;;
15669;SDS011;18524;45.190;5.732;2022-07-23T09:07:03;13.33;;;12.07;;
15669;SDS011;18524;45.190;5.732;2022-07-23T09:12:04;13.07;;;11.90;;
15669;SDS011;18524;45.190;5.732;2022-07-23T09:16:55;13.23;;;12.13;;
15669;SDS011;18524;45.190;5.732;2022-07-23T09:21:46;12.10;;;11.10;;
15669;SDS011;18524;45.190;5.732;2022-07-23T09:26:43;13.10;;;12.10;;
15669;SDS011;18524;45.190;5.732;2022-07-23T09:31:48;12.57;;;11.63;;
15669;SDS011;18524;45.190;5.732;2022-07-23T09:36:39;13.00;;;11.93;;
15669;SDS011;18524;45.190;5.732;2022-07-23T09:41:37;12.33;;;11.43;;
15669;SDS011;18524;45.190;5.732;2022-07-23T09:46:33;12.90;;;11.60;;
15669;SDS011;18524;45.190;5.732;2022-07-23T09:51:23;11.90;;;11.00;;
15669;SDS011;18524;45.190;5.732;2022-07-23T09:56:16;12.57;;;11.57;;
15669;SDS011;18524;45.190;5.732;2022-07-23T10:01:09;12.20;;;11.33;;
15669;SDS011;18524;45.190;5.732;2022-07-23T10:06:00;12.03;;;11.07;;
15669;SDS011;18524;45.190;5.732;2022-07-23T10:10:51;11.83;;;10.80;;
15669;SDS011;18524;45.190;5.732;2022-07-23T10:15:43;11.27;;;10.27;;
15669;SDS011;18524;45.190;5.732;2022-07-23T10:20:34;12.00;;;10.90;;
15669;SDS011;18524;45.190;5.732;2022-07-23T10:40:57;12.40;;;11.50;;
15669;SDS011;18524;45.190;5.732;2022-07-23T10:45:48;11.20;;;10.43;;
15669;SDS011;18524;45.190;5.732;2022-07-23T10:50:39;11.57;;;10.67;;
15669;SDS011;18524;45.190;5.732;2022-07-23T11:00:22;12.40;;;11.40;;
15669;SDS011;18524;45.190;5.732;2022-07-23T11:05:15;12.13;;;11.20;;
15669;SDS011;18524;45.190;5.732;2022-07-23T11:10:07;12.97;;;11.87;;
15669;SDS011;18524;45.190;5.732;2022-07-23T11:15:28;12.73;;;11.83;;
15669;SDS011;18524;45.190;5.732;2022-07-23T11:20:22;10.57;;;9.83;;
15669;SDS011;18524;45.190;5.732;2022-07-23T11:35:26;11.87;;;11.00;;
15669;SDS011;18524;45.190;5.732;2022-07-23T11:40:17;11.50;;;10.70;;
15669;SDS011;18524;45.190;5.732;2022-07-23T11:45:08;11.73;;;10.83;;
15669;SDS011;18524;45.190;5.732;2022-07-23T11:50:00;11.47;;;10.67;;
15669;SDS011;18524;45.190;5.732;2022-07-23T11:54:54;11.13;;;10.33;;
15669;SDS011;18524;45.190;5.732;2022-07-23T11:59:47;12.03;;;11.13;;
15669;SDS011;18524;45.190;5.732;2022-07-23T12:04:41;11.37;;;10.47;;
15669;SDS011;18524;45.190;5.732;2022-07-23T12:09:34;11.60;;;10.77;;
15669;SDS011;18524;45.190;5.732;2022-07-23T12:14:24;12.40;;;11.40;;
15669;SDS011;18524;45.190;5.732;2022-07-23T12:19:15;11.13;;;10.33;;
15669;SDS011;18524;45.190;5.732;2022-07-23T12:24:06;11.90;;;10.90;;
15669;SDS011;18524;45.190;5.732;2022-07-23T12:28:57;11.77;;;10.87;;
15669;SDS011;18524;45.190;5.732;2022-07-23T12:33:47;10.90;;;10.10;;
15669;SDS011;18524;45.190;5.732;2022-07-23T12:38:47;11.97;;;11.10;;
15669;SDS011;18524;45.190;5.732;2022-07-23T12:43:42;11.30;;;10.50;;
15669;SDS011;18524;45.190;5.732;2022-07-23T12:48:50;11.43;;;10.63;;
15669;SDS011;18524;45.190;5.732;2022-07-23T12:53:46;11.40;;;10.70;;
15669;SDS011;18524;45.190;5.732;2022-07-23T13:03:37;11.50;;;10.70;;
15669;SDS011;18524;45.190;5.732;2022-07-23T13:08:31;11.80;;;11.00;;
15669;SDS011;18524;45.190;5.732;2022-07-23T13:13:24;12.00;;;10.93;;
15669;SDS011;18524;45.190;5.732;2022-07-23T13:18:17;11.47;;;10.67;;
15669;SDS011;18524;45.190;5.732;2022-07-23T13:23:08;11.13;;;10.40;;
15669;SDS011;18524;45.190;5.732;2022-07-23T13:27:58;11.30;;;10.40;;
15669;SDS011;18524;45.190;5.732;2022-07-23T13:32:49;10.33;;;9.53;;
15669;SDS011;18524;45.190;5.732;2022-07-23T13:37:39;11.27;;;10.40;;
15669;SDS011;18524;45.190;5.732;2022-07-23T13:42:30;11.83;;;10.93;;
15669;SDS011;18524;45.190;5.732;2022-07-23T13:47:20;11.90;;;10.90;;
15669;SDS011;18524;45.190;5.732;2022-07-23T13:52:11;11.20;;;10.30;;
15669;SDS011;18524;45.190;5.732;2022-07-23T13:57:01;12.17;;;11.07;;
15669;SDS011;18524;45.190;5.732;2022-07-23T14:01:52;11.63;;;10.73;;
15669;SDS011;18524;45.190;5.732;2022-07-23T14:06:43;11.47;;;10.47;;
15669;SDS011;18524;45.190;5.732;2022-07-23T14:11:33;11.90;;;11.00;;
15669;SDS011;18524;45.190;5.732;2022-07-23T14:16:24;11.20;;;10.40;;
15669;SDS011;18524;45.190;5.732;2022-07-23T14:21:14;11.13;;;10.23;;
15669;SDS011;18524;45.190;5.732;2022-07-23T14:26:05;12.17;;;11.20;;
15669;SDS011;18524;45.190;5.732;2022-07-23T14:30:55;11.30;;;10.50;;
15669;SDS011;18524;45.190;5.732;2022-07-23T14:35:46;10.53;;;9.80;;
15669;SDS011;18524;45.190;5.732;2022-07-23T14:40:36;11.83;;;10.87;;
15669;SDS011;18524;45.190;5.732;2022-07-23T14:45:27;11.50;;;10.53;;
15669;SDS011;18524;45.190;5.732;2022-07-23T14:50:19;11.37;;;10.57;;
15669;SDS011;18524;45.190;5.732;2022-07-23T14:55:10;11.20;;;10.20;;
15669;SDS011;18524;45.190;5.732;2022-07-23T15:00:00;11.67;;;10.77;;
15669;SDS011;18524;45.190;5.732;2022-07-23T15:04:51;11.90;;;10.83;;
15669;SDS011;18524;45.190;5.732;2022-07-23T15:09:42;11.63;;;10.73;;
15669;SDS011;18524;45.190;5.732;2022-07-23T15:14:32;11.60;;;10.70;;
15669;SDS011;18524;45.190;5.732;2022-07-23T15:19:23;11.93;;;11.10;;
15669;SDS011;18524;45.190;5.732;2022-07-23T15:24:13;11.47;;;10.53;;
15669;SDS011;18524;45.190;5.732;2022-07-23T15:29:04;12.20;;;11.20;;
15669;SDS011;18524;45.190;5.732;2022-07-23T15:33:56;11.93;;;10.93;;
15669;SDS011;18524;45.190;5.732;2022-07-23T15:38:46;12.00;;;11.00;;
15669;SDS011;18524;45.190;5.732;2022-07-23T15:43:37;11.50;;;10.47;;
15669;SDS011;18524;45.190;5.732;2022-07-23T15:48:27;12.10;;;11.10;;
15669;SDS011;18524;45.190;5.732;2022-07-23T15:53:18;11.77;;;10.87;;
15669;SDS011;18524;45.190;5.732;2022-07-23T15:58:09;11.43;;;10.63;;
15669;SDS011;18524;45.190;5.732;2022-07-23T16:03:00;11.63;;;10.73;;
15669;SDS011;18524;45.190;5.732;2022-07-23T16:07:50;11.83;;;10.93;;
15669;SDS011;18524;45.190;5.732;2022-07-23T16:12:41;12.10;;;11.10;;
15669;SDS011;18524;45.190;5.732;2022-07-23T16:17:31;12.13;;;11.13;;
15669;SDS011;18524;45.190;5.732;2022-07-23T16:22:21;11.37;;;10.50;;
15669;SDS011;18524;45.190;5.732;2022-07-23T16:27:12;12.03;;;11.23;;
15669;SDS011;18524;45.190;5.732;2022-07-23T16:32:02;11.53;;;10.63;;
15669;SDS011;18524;45.190;5.732;2022-07-23T16:36:53;12.10;;;11.17;;
15669;SDS011;18524;45.190;5.732;2022-07-23T16:41:43;11.80;;;10.70;;
15669;SDS011;18524;45.190;5.732;2022-07-23T16:46:34;11.90;;;10.67;;
15669;SDS011;18524;45.190;5.732;2022-07-23T16:51:24;11.60;;;10.60;;
15669;SDS011;18524;45.190;5.732;2022-07-23T16:56:14;11.70;;;10.77;;
15669;SDS011;18524;45.190;5.732;2022-07-23T17:01:05;10.83;;;10.00;;
15669;SDS011;18524;45.190;5.732;2022-07-23T17:05:56;11.97;;;11.10;;
15669;SDS011;18524;45.190;5.732;2022-07-23T17:10:46;11.00;;;10.07;;
15669;SDS011;18524;45.190;5.732;2022-07-23T17:15:37;11.57;;;10.63;;
15669;SDS011;18524;45.190;5.732;2022-07-23T17:20:27;10.87;;;10.10;;
15669;SDS011;18524;45.190;5.732;2022-07-23T17:25:18;11.37;;;10.37;;
15669;SDS011;18524;45.190;5.732;2022-07-23T17:30:09;9.90;;;9.20;;
15669;SDS011;18524;45.190;5.732;2022-07-23T17:35:01;10.63;;;9.83;;
15669;SDS011;18524;45.190;5.732;2022-07-23T17:39:52;11.07;;;10.17;;
15669;SDS011;18524;45.190;5.732;2022-07-23T17:44:42;10.37;;;9.60;;
15669;SDS011;18524;45.190;5.732;2022-07-23T17:49:33;10.20;;;9.40;;
15669;SDS011;18524;45.190;5.732;2022-07-23T17:54:23;10.17;;;9.33;;
15669;SDS011;18524;45.190;5.732;2022-07-23T17:59:15;11.07;;;10.10;;
15669;SDS011;18524;45.190;5.732;2022-07-23T18:04:06;11.17;;;10.23;;
15669;SDS011;18524;45.190;5.732;2022-07-23T18:08:56;9.77;;;9.10;;
15669;SDS011;18524;45.190;5.732;2022-07-23T18:13:47;11.33;;;10.33;;
15669;SDS011;18524;45.190;5.732;2022-07-23T18:18:37;10.40;;;9.50;;
15669;SDS011;18524;45.190;5.732;2022-07-23T18:23:27;9.80;;;8.93;;
15669;SDS011;18524;45.190;5.732;2022-07-23T18:28:18;10.03;;;9.13;;
15669;SDS011;18524;45.190;5.732;2022-07-23T18:33:08;9.90;;;9.13;;
15669;SDS011;18524;45.190;5.732;2022-07-23T18:37:59;10.23;;;9.30;;
15669;SDS011;18524;45.190;5.732;2022-07-23T18:42:49;9.73;;;8.93;;
15669;SDS011;18524;45.190;5.732;2022-07-23T18:47:40;9.80;;;9.10;;
15669;SDS011;18524;45.190;5.732;2022-07-23T18:52:31;9.90;;;9.10;;
15669;SDS011;18524;45.190;5.732;2022-07-23T18:57:21;9.37;;;8.67;;
15669;SDS011;18524;45.190;5.732;2022-07-23T19:02:11;9.97;;;9.17;;
15669;SDS011;18524;45.190;5.732;2022-07-23T19:07:04;9.70;;;9.00;;
15669;SDS011;18524;45.190;5.732;2022-07-23T19:11:54;10.70;;;9.23;;
15669;SDS011;18524;45.190;5.732;2022-07-23T19:16:45;10.20;;;9.33;;
15669;SDS011;18524;45.190;5.732;2022-07-23T19:21:35;10.33;;;9.43;;
15669;SDS011;18524;45.190;5.732;2022-07-23T19:26:25;10.53;;;9.73;;
15669;SDS011;18524;45.190;5.732;2022-07-23T19:31:16;10.17;;;9.43;;
15669;SDS011;18524;45.190;5.732;2022-07-23T19:36:08;10.33;;;9.43;;
15669;SDS011;18524;45.190;5.732;2022-07-23T19:40:58;10.13;;;9.33;;
15669;SDS011;18524;45.190;5.732;2022-07-23T19:45:49;9.53;;;8.73;;
15669;SDS011;18524;45.190;5.732;2022-07-23T19:50:39;10.10;;;9.30;;
15669;SDS011;18524;45.190;5.732;2022-07-23T19:55:30;9.83;;;8.93;;
15669;SDS011;18524;45.190;5.732;2022-07-23T20:00:20;10.03;;;9.23;;
15669;SDS011;18524;45.190;5.732;2022-07-23T20:05:12;10.00;;;9.20;;
15669;SDS011;18524;45.190;5.732;2022-07-23T20:10:03;10.70;;;9.80;;
15669;SDS011;18524;45.190;5.732;2022-07-23T20:14:55;9.80;;;8.80;;
15669;SDS011;18524;45.190;5.732;2022-07-23T20:19:45;9.90;;;9.10;;
15669;SDS011;18524;45.190;5.732;2022-07-23T20:24:36;9.30;;;8.63;;
15669;SDS011;18524;45.190;5.732;2022-07-23T20:29:26;9.17;;;8.47;;
15669;SDS011;18524;45.190;5.732;2022-07-23T20:34:17;9.40;;;8.70;;
15669;SDS011;18524;45.190;5.732;2022-07-23T20:39:08;10.40;;;9.70;;
15669;SDS011;18524;45.190;5.732;2022-07-23T20:43:59;9.73;;;8.83;;
15669;SDS011;18524;45.190;5.732;2022-07-23T20:48:49;9.90;;;9.10;;
15669;SDS011;18524;45.190;5.732;2022-07-23T20:53:40;10.20;;;9.30;;
15669;SDS011;18524;45.190;5.732;2022-07-23T20:58:30;9.60;;;8.87;;
15669;SDS011;18524;45.190;5.732;2022-07-23T21:03:21;9.67;;;8.87;;
15669;SDS011;18524;45.190;5.732;2022-07-23T21:08:11;10.00;;;9.10;;
15669;SDS011;18524;45.190;5.732;2022-07-23T21:13:02;9.07;;;8.27;;
15669;SDS011;18524;45.190;5.732;2022-07-23T21:17:53;10.57;;;9.57;;
15669;SDS011;18524;45.190;5.732;2022-07-23T21:22:44;9.97;;;9.07;;
15669;SDS011;18524;45.190;5.732;2022-07-23T21:27:35;9.27;;;8.47;;
15669;SDS011;18524;45.190;5.732;2022-07-23T21:32:26;9.67;;;8.77;;
15669;SDS011;18524;45.190;5.732;2022-07-23T21:37:16;9.97;;;9.20;;
15669;SDS011;18524;45.190;5.732;2022-07-23T21:42:07;9.87;;;8.90;;
15669;SDS011;18524;45.190;5.732;2022-07-23T21:46:57;9.53;;;8.80;;
15669;SDS011;18524;45.190;5.732;2022-07-23T21:51:48;10.73;;;9.90;;
15669;SDS011;18524;45.190;5.732;2022-07-23T21:56:38;10.17;;;9.40;;
15669;SDS011;18524;45.190;5.732;2022-07-23T22:01:29;10.97;;;10.07;;
15669;SDS011;18524;45.190;5.732;2022-07-23T22:06:19;10.10;;;9.30;;
15669;SDS011;18524;45.190;5.732;2022-07-23T22:11:10;9.67;;;8.87;;
15669;SDS011;18524;45.190;5.732;2022-07-23T22:16:00;9.83;;;9.03;;
15669;SDS011;18524;45.190;5.732;2022-07-23T22:20:50;10.57;;;9.63;;
15669;SDS011;18524;45.190;5.732;2022-07-23T22:25:43;9.73;;;9.03;;
15669;SDS011;18524;45.190;5.732;2022-07-23T22:30:34;9.47;;;8.73;;
15669;SDS011;18524;45.190;5.732;2022-07-23T22:35:24;9.90;;;9.00;;
15669;SDS011;18524;45.190;5.732;2022-07-23T22:40:15;10.37;;;9.57;;
15669;SDS011;18524;45.190;5.732;2022-07-23T22:45:07;10.10;;;9.27;;
15669;SDS011;18524;45.190;5.732;2022-07-23T22:49:57;10.17;;;9.37;;
15669;SDS011;18524;45.190;5.732;2022-07-23T22:54:48;9.93;;;9.10;;
15669;SDS011;18524;45.190;5.732;2022-07-23T22:59:38;9.53;;;8.80;;
15669;SDS011;18524;45.190;5.732;2022-07-23T23:04:29;10.30;;;9.40;;
15669;SDS011;18524;45.190;5.732;2022-07-23T23:09:20;9.77;;;9.07;;
15669;SDS011;18524;45.190;5.732;2022-07-23T23:14:10;9.80;;;9.10;;
15669;SDS011;18524;45.190;5.732;2022-07-23T23:19:01;8.73;;;8.13;;
15669;SDS011;18524;45.190;5.732;2022-07-23T23:23:51;10.53;;;9.73;;
15669;SDS011;18524;45.190;5.732;2022-07-23T23:28:42;10.90;;;9.80;;
15669;SDS011;18524;45.190;5.732;2022-07-23T23:33:33;13.43;;;12.37;;
15669;SDS011;18524;45.190;5.732;2022-07-23T23:38:24;11.30;;;10.40;;
15669;SDS011;18524;45.190;5.732;2022-07-23T23:43:15;10.60;;;9.60;;
15669;SDS011;18524;45.190;5.732;2022-07-23T23:48:08;9.87;;;9.03;;
15669;SDS011;18524;45.190;5.732;2022-07-23T23:52:58;9.60;;;8.73;;
15669;SDS011;18524;45.190;5.732;2022-07-23T23:57:49;9.77;;;8.87;;
